<?xml version="1.0" encoding="UTF-8" standalone="no" ?>
<gpx xmlns="http://www.topografix.com/GPX/1/1" xmlns:xsi="http://www.w3.org/2001/XMLSchema-instance" xsi:schemaLocation="http://www.topografix.com/GPX/1/1 http://www.topografix.com/GPX/1/1/gpx.xsd" version="1.1" creator="VisuGPX - https://www.visugpx.com">
  <metadata>
    <name>GRPMelusine_J5_J9</name>
    <desc><![CDATA[gnerando idor: 12434239_12434246_12434251_12431499_12431542]]></desc>
  </metadata>
  <trk>
    <name><![CDATA[GRPMelusineJ9_BazogesP_RochereauS_21.2km-12431542]]></name>
    <extensions>
      <line xmlns="http://www.topografix.com/GPX/gpx_style/0/2">
        <color>FFFF00</color>
        <width>4</width>
      </line>
    </extensions>
    <trkseg>
      <trkpt lat="46.65627" lon="-0.91414">
        <ele>76</ele>
        <time>2023-10-30T09:47:15Z</time>
      </trkpt>
      <trkpt lat="46.65673" lon="-0.91414">
        <ele>74</ele>
        <time>2023-10-30T09:48:16Z</time>
      </trkpt>
      <trkpt lat="46.65719" lon="-0.91517">
        <ele>73</ele>
        <time>2023-10-30T09:50:09Z</time>
      </trkpt>
      <trkpt lat="46.65681" lon="-0.91818">
        <ele>74</ele>
        <time>2023-10-30T09:54:49Z</time>
      </trkpt>
      <trkpt lat="46.65796" lon="-0.92048">
        <ele>74</ele>
        <time>2023-10-30T09:59:10Z</time>
      </trkpt>
      <trkpt lat="46.65898" lon="-0.92577">
        <ele>73</ele>
        <time>2023-10-30T10:07:33Z</time>
      </trkpt>
      <trkpt lat="46.66081" lon="-0.92873">
        <ele>73</ele>
        <time>2023-10-30T10:13:38Z</time>
      </trkpt>
      <trkpt lat="46.66095" lon="-0.93143">
        <ele>68</ele>
        <time>2023-10-30T10:17:46Z</time>
      </trkpt>
      <trkpt lat="46.66388" lon="-0.942">
        <ele>49</ele>
        <time>2023-10-30T10:35:10Z</time>
      </trkpt>
      <trkpt lat="46.66512" lon="-0.94236">
        <ele>55</ele>
        <time>2023-10-30T10:37:59Z</time>
      </trkpt>
      <trkpt lat="46.66575" lon="-0.94538">
        <ele>52</ele>
        <time>2023-10-30T10:42:48Z</time>
      </trkpt>
      <trkpt lat="46.66799" lon="-0.94851">
        <ele>57</ele>
        <time>2023-10-30T10:49:42Z</time>
      </trkpt>
      <trkpt lat="46.67275" lon="-0.96084">
        <ele>54</ele>
        <time>2023-10-30T11:11:17Z</time>
      </trkpt>
      <trkpt lat="46.67488" lon="-0.95918">
        <ele>73</ele>
        <time>2023-10-30T11:16:40Z</time>
      </trkpt>
      <trkpt lat="46.6753" lon="-0.96366">
        <ele>71</ele>
        <time>2023-10-30T11:23:34Z</time>
      </trkpt>
      <trkpt lat="46.67686" lon="-0.96531">
        <ele>74</ele>
        <time>2023-10-30T11:27:51Z</time>
      </trkpt>
      <trkpt lat="46.67898" lon="-0.96328">
        <ele>81</ele>
        <time>2023-10-30T11:33:30Z</time>
      </trkpt>
      <trkpt lat="46.68245" lon="-0.96212">
        <ele>75</ele>
        <time>2023-10-30T11:41:25Z</time>
      </trkpt>
      <trkpt lat="46.68336" lon="-0.96302">
        <ele>73</ele>
        <time>2023-10-30T11:43:51Z</time>
      </trkpt>
      <trkpt lat="46.68716" lon="-0.96308">
        <ele>50</ele>
        <time>2023-10-30T11:52:18Z</time>
      </trkpt>
      <trkpt lat="46.68795" lon="-0.96142">
        <ele>47</ele>
        <time>2023-10-30T11:55:23Z</time>
      </trkpt>
      <trkpt lat="46.68884" lon="-0.96214">
        <ele>47</ele>
        <time>2023-10-30T11:57:39Z</time>
      </trkpt>
      <trkpt lat="46.69042" lon="-0.95983">
        <ele>55</ele>
        <time>2023-10-30T12:02:38Z</time>
      </trkpt>
      <trkpt lat="46.69158" lon="-0.96152">
        <ele>66</ele>
        <time>2023-10-30T12:06:17Z</time>
      </trkpt>
      <trkpt lat="46.69214" lon="-0.96306">
        <ele>71</ele>
        <time>2023-10-30T12:08:56Z</time>
      </trkpt>
      <trkpt lat="46.69646" lon="-0.96727">
        <ele>73</ele>
        <time>2023-10-30T12:20:30Z</time>
      </trkpt>
      <trkpt lat="46.69795" lon="-0.96676">
        <ele>77</ele>
        <time>2023-10-30T12:23:54Z</time>
      </trkpt>
      <trkpt lat="46.70129" lon="-0.96877">
        <ele>81</ele>
        <time>2023-10-30T12:31:56Z</time>
      </trkpt>
      <trkpt lat="46.70191" lon="-0.96542">
        <ele>81</ele>
        <time>2023-10-30T12:37:14Z</time>
      </trkpt>
      <trkpt lat="46.70497" lon="-0.96487">
        <ele>70</ele>
        <time>2023-10-30T12:44:05Z</time>
      </trkpt>
      <trkpt lat="46.70606" lon="-0.96663">
        <ele>68</ele>
        <time>2023-10-30T12:47:42Z</time>
      </trkpt>
      <trkpt lat="46.70765" lon="-0.96685">
        <ele>72</ele>
        <time>2023-10-30T12:51:15Z</time>
      </trkpt>
      <trkpt lat="46.70983" lon="-0.95904">
        <ele>57</ele>
        <time>2023-10-30T13:04:07Z</time>
      </trkpt>
      <trkpt lat="46.71166" lon="-0.95795">
        <ele>67</ele>
        <time>2023-10-30T13:08:31Z</time>
      </trkpt>
      <trkpt lat="46.7122" lon="-0.95478">
        <ele>54</ele>
        <time>2023-10-30T13:13:29Z</time>
      </trkpt>
      <trkpt lat="46.71448" lon="-0.95572">
        <ele>58</ele>
        <time>2023-10-30T13:18:46Z</time>
      </trkpt>
      <trkpt lat="46.71377" lon="-0.95182">
        <ele>61</ele>
        <time>2023-10-30T13:24:55Z</time>
      </trkpt>
      <trkpt lat="46.71389" lon="-0.94792">
        <ele>79</ele>
        <time>2023-10-30T13:30:52Z</time>
      </trkpt>
      <trkpt lat="46.71196" lon="-0.94908">
        <ele>79</ele>
        <time>2023-10-30T13:35:31Z</time>
      </trkpt>
      <trkpt lat="46.71022" lon="-0.94568">
        <ele>59</ele>
        <time>2023-10-30T13:41:59Z</time>
      </trkpt>
      <trkpt lat="46.70905" lon="-0.9462">
        <ele>56</ele>
        <time>2023-10-30T13:44:42Z</time>
      </trkpt>
      <trkpt lat="46.70824" lon="-0.94561">
        <ele>62</ele>
        <time>2023-10-30T13:46:43Z</time>
      </trkpt>
      <trkpt lat="46.70744" lon="-0.94773">
        <ele>59</ele>
        <time>2023-10-30T13:50:24Z</time>
      </trkpt>
      <trkpt lat="46.70428" lon="-0.94987">
        <ele>57</ele>
        <time>2023-10-30T13:58:09Z</time>
      </trkpt>
      <trkpt lat="46.70352" lon="-0.946">
        <ele>76</ele>
        <time>2023-10-30T14:04:18Z</time>
      </trkpt>
      <trkpt lat="46.70163" lon="-0.94156">
        <ele>83</ele>
        <time>2023-10-30T14:12:16Z</time>
      </trkpt>
      <trkpt lat="46.70103" lon="-0.93697">
        <ele>77</ele>
        <time>2023-10-30T14:19:23Z</time>
      </trkpt>
      <trkpt lat="46.69934" lon="-0.93334">
        <ele>79</ele>
        <time>2023-10-30T14:26:05Z</time>
      </trkpt>
      <trkpt lat="46.69978" lon="-0.92713">
        <ele>83</ele>
        <time>2023-10-30T14:35:36Z</time>
      </trkpt>
      <trkpt lat="46.69825" lon="-0.92598">
        <ele>72</ele>
        <time>2023-10-30T14:39:26Z</time>
      </trkpt>
      <trkpt lat="46.69508" lon="-0.92706">
        <ele>63</ele>
        <time>2023-10-30T14:46:41Z</time>
      </trkpt>
      <trkpt lat="46.69399" lon="-0.9254">
        <ele>82</ele>
        <time>2023-10-30T14:50:11Z</time>
      </trkpt>
      <trkpt lat="46.6932" lon="-0.92591">
        <ele>87</ele>
        <time>2023-10-30T14:52:06Z</time>
      </trkpt>
      <trkpt lat="46.69196" lon="-0.92533">
        <ele>99</ele>
        <time>2023-10-30T14:55:00Z</time>
      </trkpt>
      <trkpt lat="46.68978" lon="-0.92677">
        <ele>103</ele>
        <time>2023-10-30T15:00:19Z</time>
      </trkpt>
      <trkpt lat="46.68968" lon="-0.92923">
        <ele>102</ele>
        <time>2023-10-30T15:04:05Z</time>
      </trkpt>
      <trkpt lat="46.68726" lon="-0.93161">
        <ele>106</ele>
        <time>2023-10-30T15:10:34Z</time>
      </trkpt>
      <trkpt lat="46.68468" lon="-0.93221">
        <ele>98</ele>
        <time>2023-10-30T15:16:23Z</time>
      </trkpt>
      <trkpt lat="46.68431" lon="-0.92913">
        <ele>99</ele>
        <time>2023-10-30T15:21:09Z</time>
      </trkpt>
      <trkpt lat="46.68321" lon="-0.92675">
        <ele>93</ele>
        <time>2023-10-30T15:25:32Z</time>
      </trkpt>
      <trkpt lat="46.68285" lon="-0.92408">
        <ele>98</ele>
        <time>2023-10-30T15:29:41Z</time>
      </trkpt>
      <trkpt lat="46.68191" lon="-0.92302">
        <ele>97</ele>
        <time>2023-10-30T15:32:20Z</time>
      </trkpt>
      <trkpt lat="46.68017" lon="-0.9227">
        <ele>96</ele>
        <time>2023-10-30T15:36:14Z</time>
      </trkpt>
      <trkpt lat="46.67859" lon="-0.92331">
        <ele>96</ele>
        <time>2023-10-30T15:39:52Z</time>
      </trkpt>
      <trkpt lat="46.67418" lon="-0.92832">
        <ele>92</ele>
        <time>2023-10-30T15:52:18Z</time>
      </trkpt>
      <trkpt lat="46.67192" lon="-0.92895">
        <ele>85</ele>
        <time>2023-10-30T15:57:25Z</time>
      </trkpt>
      <trkpt lat="46.66839" lon="-0.9319">
        <ele>70</ele>
        <time>2023-10-30T16:06:28Z</time>
      </trkpt>
      <trkpt lat="46.66557" lon="-0.93154">
        <ele>54</ele>
        <time>2023-10-30T16:12:46Z</time>
      </trkpt>
      <trkpt lat="46.66366" lon="-0.92693">
        <ele>53</ele>
        <time>2023-10-30T16:20:59Z</time>
      </trkpt>
      <trkpt lat="46.6618" lon="-0.91652">
        <ele>58</ele>
        <time>2023-10-30T16:37:24Z</time>
      </trkpt>
      <trkpt lat="46.65932" lon="-0.91746">
        <ele>63</ele>
        <time>2023-10-30T16:43:06Z</time>
      </trkpt>
      <trkpt lat="46.65848" lon="-0.91566">
        <ele>70</ele>
        <time>2023-10-30T16:46:26Z</time>
      </trkpt>
      <trkpt lat="46.65713" lon="-0.91527">
        <ele>73</ele>
        <time>2023-10-30T16:49:29Z</time>
      </trkpt>
      <trkpt lat="46.65667" lon="-0.91403">
        <ele>74</ele>
        <time>2023-10-30T16:51:38Z</time>
      </trkpt>
      <trkpt lat="46.65659" lon="-0.91393">
        <ele>74</ele>
        <time>2023-10-30T16:51:52Z</time>
      </trkpt>
    </trkseg>
  </trk>
</gpx>